sensor_id;sensor_type;location;lat;lon;timestamp;P1;durP1;ratioP1;P2;durP2;ratioP2
19877;SDS011;10101;52.204;9.910;2023-03-02T00:01:17;10.10;;;4.87;;
19877;SDS011;10101;52.204;9.910;2023-03-02T00:03:44;9.03;;;4.80;;
19877;SDS011;10101;52.204;9.910;2023-03-02T00:06:12;8.40;;;5.27;;
19877;SDS011;10101;52.204;9.910;2023-03-02T00:08:39;10.73;;;5.43;;
19877;SDS011;10101;52.204;9.910;2023-03-02T00:11:06;10.50;;;5.60;;
19877;SDS011;10101;52.204;9.910;2023-03-02T00:13:33;10.07;;;6.10;;
19877;SDS011;10101;52.204;9.910;2023-03-02T00:16:02;10.37;;;5.60;;
19877;SDS011;10101;52.204;9.910;2023-03-02T00:18:29;13.07;;;6.60;;
19877;SDS011;10101;52.204;9.910;2023-03-02T00:20:56;12.63;;;6.20;;
19877;SDS011;10101;52.204;9.910;2023-03-02T00:23:24;9.43;;;5.50;;
19877;SDS011;10101;52.204;9.910;2023-03-02T00:25:51;9.77;;;6.07;;
19877;SDS011;10101;52.204;9.910;2023-03-02T00:28:18;11.67;;;6.87;;
19877;SDS011;10101;52.204;9.910;2023-03-02T00:30:44;13.57;;;6.90;;
19877;SDS011;10101;52.204;9.910;2023-03-02T00:33:11;12.83;;;7.03;;
19877;SDS011;10101;52.204;9.910;2023-03-02T00:35:38;13.63;;;7.20;;
19877;SDS011;10101;52.204;9.910;2023-03-02T00:38:05;9.90;;;5.83;;
19877;SDS011;10101;52.204;9.910;2023-03-02T00:40:33;13.87;;;6.80;;
19877;SDS011;10101;52.204;9.910;2023-03-02T00:43:00;10.03;;;5.37;;
19877;SDS011;10101;52.204;9.910;2023-03-02T00:45:27;9.60;;;5.80;;
19877;SDS011;10101;52.204;9.910;2023-03-02T00:47:53;10.73;;;6.20;;
19877;SDS011;10101;52.204;9.910;2023-03-02T00:50:21;13.30;;;6.07;;
19877;SDS011;10101;52.204;9.910;2023-03-02T00:52:48;12.00;;;6.23;;
19877;SDS011;10101;52.204;9.910;2023-03-02T00:55:14;11.67;;;5.77;;
19877;SDS011;10101;52.204;9.910;2023-03-02T00:57:42;14.50;;;6.63;;
19877;SDS011;10101;52.204;9.910;2023-03-02T01:00:19;10.43;;;5.53;;
19877;SDS011;10101;52.204;9.910;2023-03-02T01:02:47;12.60;;;6.30;;
19877;SDS011;10101;52.204;9.910;2023-03-02T01:05:13;12.60;;;6.07;;
19877;SDS011;10101;52.204;9.910;2023-03-02T01:07:41;9.87;;;5.30;;
19877;SDS011;10101;52.204;9.910;2023-03-02T01:10:09;10.83;;;5.67;;
19877;SDS011;10101;52.204;9.910;2023-03-02T01:12:36;12.27;;;5.37;;
19877;SDS011;10101;52.204;9.910;2023-03-02T01:15:05;12.60;;;5.83;;
19877;SDS011;10101;52.204;9.910;2023-03-02T01:17:33;12.73;;;5.97;;
19877;SDS011;10101;52.204;9.910;2023-03-02T01:20:00;9.80;;;5.80;;
19877;SDS011;10101;52.204;9.910;2023-03-02T01:22:27;9.00;;;5.57;;
19877;SDS011;10101;52.204;9.910;2023-03-02T01:24:54;9.60;;;5.30;;
19877;SDS011;10101;52.204;9.910;2023-03-02T01:27:21;10.50;;;6.40;;
19877;SDS011;10101;52.204;9.910;2023-03-02T01:29:47;16.07;;;6.20;;
19877;SDS011;10101;52.204;9.910;2023-03-02T01:32:16;11.77;;;6.60;;
19877;SDS011;10101;52.204;9.910;2023-03-02T01:34:43;13.37;;;5.67;;
19877;SDS011;10101;52.204;9.910;2023-03-02T01:37:09;12.97;;;6.07;;
19877;SDS011;10101;52.204;9.910;2023-03-02T01:39:36;11.63;;;5.90;;
19877;SDS011;10101;52.204;9.910;2023-03-02T01:42:03;14.03;;;6.10;;
19877;SDS011;10101;52.204;9.910;2023-03-02T01:44:31;12.03;;;6.00;;
19877;SDS011;10101;52.204;9.910;2023-03-02T01:47:04;11.10;;;5.60;;
19877;SDS011;10101;52.204;9.910;2023-03-02T01:49:39;10.37;;;5.87;;
19877;SDS011;10101;52.204;9.910;2023-03-02T01:52:09;9.93;;;5.63;;
19877;SDS011;10101;52.204;9.910;2023-03-02T01:54:37;10.90;;;6.20;;
19877;SDS011;10101;52.204;9.910;2023-03-02T01:57:05;8.77;;;5.17;;
19877;SDS011;10101;52.204;9.910;2023-03-02T01:59:33;10.40;;;5.53;;
19877;SDS011;10101;52.204;9.910;2023-03-02T02:02:05;8.93;;;5.37;;
19877;SDS011;10101;52.204;9.910;2023-03-02T02:04:34;10.43;;;5.23;;
19877;SDS011;10101;52.204;9.910;2023-03-02T02:07:05;9.50;;;5.83;;
19877;SDS011;10101;52.204;9.910;2023-03-02T02:09:33;9.20;;;5.87;;
19877;SDS011;10101;52.204;9.910;2023-03-02T02:12:02;10.97;;;5.93;;
19877;SDS011;10101;52.204;9.910;2023-03-02T02:14:29;10.13;;;5.33;;
19877;SDS011;10101;52.204;9.910;2023-03-02T02:16:56;9.70;;;5.37;;
19877;SDS011;10101;52.204;9.910;2023-03-02T02:19:27;9.00;;;5.47;;
19877;SDS011;10101;52.204;9.910;2023-03-02T02:22:03;9.77;;;5.60;;
19877;SDS011;10101;52.204;9.910;2023-03-02T02:24:31;10.17;;;5.40;;
19877;SDS011;10101;52.204;9.910;2023-03-02T02:27:03;14.10;;;6.20;;
19877;SDS011;10101;52.204;9.910;2023-03-02T02:29:31;14.47;;;5.23;;
19877;SDS011;10101;52.204;9.910;2023-03-02T02:32:01;11.83;;;5.73;;
19877;SDS011;10101;52.204;9.910;2023-03-02T02:34:34;10.80;;;5.27;;
19877;SDS011;10101;52.204;9.910;2023-03-02T02:37:06;8.53;;;5.00;;
19877;SDS011;10101;52.204;9.910;2023-03-02T02:39:39;8.47;;;4.73;;
19877;SDS011;10101;52.204;9.910;2023-03-02T02:42:11;10.37;;;5.50;;
19877;SDS011;10101;52.204;9.910;2023-03-02T02:44:41;9.43;;;5.40;;
19877;SDS011;10101;52.204;9.910;2023-03-02T02:47:11;9.87;;;5.30;;
19877;SDS011;10101;52.204;9.910;2023-03-02T02:49:42;13.33;;;5.27;;
19877;SDS011;10101;52.204;9.910;2023-03-02T02:52:10;10.63;;;5.40;;
19877;SDS011;10101;52.204;9.910;2023-03-02T02:54:41;10.17;;;5.00;;
19877;SDS011;10101;52.204;9.910;2023-03-02T02:57:11;8.40;;;5.20;;
19877;SDS011;10101;52.204;9.910;2023-03-02T02:59:42;10.07;;;5.37;;
19877;SDS011;10101;52.204;9.910;2023-03-02T03:02:14;10.57;;;4.97;;
19877;SDS011;10101;52.204;9.910;2023-03-02T03:04:44;11.10;;;5.50;;
19877;SDS011;10101;52.204;9.910;2023-03-02T03:07:17;9.10;;;5.47;;
19877;SDS011;10101;52.204;9.910;2023-03-02T03:09:46;9.27;;;5.03;;
19877;SDS011;10101;52.204;9.910;2023-03-02T03:12:19;8.87;;;5.07;;
19877;SDS011;10101;52.204;9.910;2023-03-02T03:14:48;9.77;;;4.90;;
19877;SDS011;10101;52.204;9.910;2023-03-02T03:17:16;10.20;;;5.13;;
19877;SDS011;10101;52.204;9.910;2023-03-02T03:19:43;7.93;;;4.60;;
19877;SDS011;10101;52.204;9.910;2023-03-02T03:22:11;8.33;;;4.47;;
19877;SDS011;10101;52.204;9.910;2023-03-02T03:24:40;11.47;;;5.40;;
19877;SDS011;10101;52.204;9.910;2023-03-02T03:27:09;10.67;;;5.23;;
19877;SDS011;10101;52.204;9.910;2023-03-02T03:29:40;8.73;;;4.63;;
19877;SDS011;10101;52.204;9.910;2023-03-02T03:32:08;12.73;;;5.80;;
19877;SDS011;10101;52.204;9.910;2023-03-02T03:34:35;9.13;;;5.17;;
19877;SDS011;10101;52.204;9.910;2023-03-02T03:37:05;9.90;;;5.23;;
19877;SDS011;10101;52.204;9.910;2023-03-02T03:39:32;14.40;;;5.73;;
19877;SDS011;10101;52.204;9.910;2023-03-02T03:41:59;8.93;;;4.87;;
19877;SDS011;10101;52.204;9.910;2023-03-02T03:44:25;11.20;;;5.27;;
19877;SDS011;10101;52.204;9.910;2023-03-02T03:46:54;11.40;;;5.83;;
19877;SDS011;10101;52.204;9.910;2023-03-02T03:49:20;8.10;;;4.73;;
19877;SDS011;10101;52.204;9.910;2023-03-02T03:51:47;11.47;;;5.30;;
19877;SDS011;10101;52.204;9.910;2023-03-02T03:54:14;9.60;;;4.50;;
19877;SDS011;10101;52.204;9.910;2023-03-02T03:56:41;9.93;;;5.27;;
19877;SDS011;10101;52.204;9.910;2023-03-02T03:59:11;8.17;;;4.80;;
19877;SDS011;10101;52.204;9.910;2023-03-02T04:01:42;9.37;;;4.97;;
19877;SDS011;10101;52.204;9.910;2023-03-02T04:04:13;9.47;;;5.33;;
19877;SDS011;10101;52.204;9.910;2023-03-02T04:06:42;7.57;;;4.97;;
19877;SDS011;10101;52.204;9.910;2023-03-02T04:09:09;8.43;;;5.07;;
19877;SDS011;10101;52.204;9.910;2023-03-02T04:11:38;8.77;;;5.07;;
19877;SDS011;10101;52.204;9.910;2023-03-02T04:14:06;9.23;;;5.33;;
19877;SDS011;10101;52.204;9.910;2023-03-02T04:16:34;10.73;;;4.93;;
19877;SDS011;10101;52.204;9.910;2023-03-02T04:19:02;9.07;;;4.83;;
19877;SDS011;10101;52.204;9.910;2023-03-02T04:21:34;8.10;;;5.27;;
19877;SDS011;10101;52.204;9.910;2023-03-02T04:24:02;9.73;;;5.67;;
19877;SDS011;10101;52.204;9.910;2023-03-02T04:26:29;12.57;;;5.57;;
19877;SDS011;10101;52.204;9.910;2023-03-02T04:28:55;11.50;;;5.73;;
19877;SDS011;10101;52.204;9.910;2023-03-02T04:31:22;13.37;;;6.47;;
19877;SDS011;10101;52.204;9.910;2023-03-02T04:33:49;14.73;;;6.27;;
19877;SDS011;10101;52.204;9.910;2023-03-02T04:36:16;14.17;;;6.53;;
19877;SDS011;10101;52.204;9.910;2023-03-02T04:38:44;13.50;;;6.57;;
19877;SDS011;10101;52.204;9.910;2023-03-02T04:41:11;23.70;;;8.73;;
19877;SDS011;10101;52.204;9.910;2023-03-02T04:43:38;17.63;;;8.23;;
19877;SDS011;10101;52.204;9.910;2023-03-02T04:46:05;18.40;;;8.07;;
19877;SDS011;10101;52.204;9.910;2023-03-02T04:48:32;22.50;;;9.20;;
19877;SDS011;10101;52.204;9.910;2023-03-02T04:50:59;23.57;;;8.77;;
19877;SDS011;10101;52.204;9.910;2023-03-02T04:53:26;22.33;;;8.50;;
19877;SDS011;10101;52.204;9.910;2023-03-02T04:55:54;20.43;;;9.20;;
19877;SDS011;10101;52.204;9.910;2023-03-02T04:58:20;21.90;;;9.73;;
19877;SDS011;10101;52.204;9.910;2023-03-02T05:00:47;19.17;;;8.70;;
19877;SDS011;10101;52.204;9.910;2023-03-02T05:03:14;20.07;;;9.97;;
19877;SDS011;10101;52.204;9.910;2023-03-02T05:05:41;19.23;;;8.63;;
19877;SDS011;10101;52.204;9.910;2023-03-02T05:08:08;18.73;;;8.70;;
19877;SDS011;10101;52.204;9.910;2023-03-02T05:10:35;24.73;;;8.10;;
19877;SDS011;10101;52.204;9.910;2023-03-02T05:13:03;21.83;;;10.30;;
19877;SDS011;10101;52.204;9.910;2023-03-02T05:15:32;18.77;;;9.03;;
19877;SDS011;10101;52.204;9.910;2023-03-02T05:18:00;25.83;;;9.67;;
19877;SDS011;10101;52.204;9.910;2023-03-02T05:20:27;22.57;;;9.23;;
19877;SDS011;10101;52.204;9.910;2023-03-02T05:22:56;20.43;;;10.20;;
19877;SDS011;10101;52.204;9.910;2023-03-02T05:25:23;22.37;;;10.53;;
19877;SDS011;10101;52.204;9.910;2023-03-02T05:27:51;26.73;;;10.30;;
19877;SDS011;10101;52.204;9.910;2023-03-02T05:30:19;22.50;;;9.47;;
19877;SDS011;10101;52.204;9.910;2023-03-02T05:32:47;23.33;;;10.53;;
19877;SDS011;10101;52.204;9.910;2023-03-02T05:35:14;24.33;;;10.33;;
19877;SDS011;10101;52.204;9.910;2023-03-02T05:37:41;25.73;;;10.73;;
19877;SDS011;10101;52.204;9.910;2023-03-02T05:40:10;23.33;;;10.40;;
19877;SDS011;10101;52.204;9.910;2023-03-02T05:42:38;24.43;;;11.27;;
19877;SDS011;10101;52.204;9.910;2023-03-02T05:45:06;20.67;;;10.60;;
19877;SDS011;10101;52.204;9.910;2023-03-02T05:47:36;23.63;;;11.37;;
19877;SDS011;10101;52.204;9.910;2023-03-02T05:50:03;25.20;;;11.07;;
19877;SDS011;10101;52.204;9.910;2023-03-02T05:52:31;22.40;;;10.23;;
19877;SDS011;10101;52.204;9.910;2023-03-02T05:54:58;27.43;;;10.67;;
19877;SDS011;10101;52.204;9.910;2023-03-02T05:57:24;20.43;;;9.70;;
19877;SDS011;10101;52.204;9.910;2023-03-02T05:59:51;21.73;;;10.17;;
19877;SDS011;10101;52.204;9.910;2023-03-02T06:02:18;18.43;;;8.67;;
19877;SDS011;10101;52.204;9.910;2023-03-02T06:04:46;26.13;;;10.90;;
19877;SDS011;10101;52.204;9.910;2023-03-02T06:07:13;17.33;;;9.10;;
19877;SDS011;10101;52.204;9.910;2023-03-02T06:09:40;24.00;;;10.00;;
19877;SDS011;10101;52.204;9.910;2023-03-02T06:12:07;21.87;;;10.57;;
19877;SDS011;10101;52.204;9.910;2023-03-02T06:14:34;28.40;;;11.03;;
19877;SDS011;10101;52.204;9.910;2023-03-02T06:17:01;28.33;;;10.87;;
19877;SDS011;10101;52.204;9.910;2023-03-02T06:19:28;24.87;;;10.53;;
19877;SDS011;10101;52.204;9.910;2023-03-02T06:21:56;46.30;;;14.97;;
19877;SDS011;10101;52.204;9.910;2023-03-02T06:24:23;43.63;;;15.67;;
19877;SDS011;10101;52.204;9.910;2023-03-02T06:26:51;51.00;;;20.10;;
19877;SDS011;10101;52.204;9.910;2023-03-02T06:29:18;45.07;;;16.23;;
19877;SDS011;10101;52.204;9.910;2023-03-02T06:31:45;26.87;;;12.70;;
19877;SDS011;10101;52.204;9.910;2023-03-02T06:34:12;24.13;;;11.27;;
19877;SDS011;10101;52.204;9.910;2023-03-02T06:36:39;67.93;;;22.27;;
19877;SDS011;10101;52.204;9.910;2023-03-02T06:39:07;47.30;;;17.77;;
19877;SDS011;10101;52.204;9.910;2023-03-02T06:41:39;29.23;;;12.87;;
19877;SDS011;10101;52.204;9.910;2023-03-02T06:44:06;22.27;;;11.27;;
19877;SDS011;10101;52.204;9.910;2023-03-02T06:46:33;31.27;;;11.73;;
19877;SDS011;10101;52.204;9.910;2023-03-02T06:49:00;23.87;;;10.60;;
19877;SDS011;10101;52.204;9.910;2023-03-02T06:51:27;26.33;;;10.70;;
19877;SDS011;10101;52.204;9.910;2023-03-02T06:53:53;26.70;;;11.03;;
19877;SDS011;10101;52.204;9.910;2023-03-02T06:56:22;30.10;;;11.50;;
19877;SDS011;10101;52.204;9.910;2023-03-02T06:58:48;23.33;;;11.10;;
19877;SDS011;10101;52.204;9.910;2023-03-02T07:01:15;21.10;;;11.07;;
19877;SDS011;10101;52.204;9.910;2023-03-02T07:03:42;29.90;;;11.07;;
19877;SDS011;10101;52.204;9.910;2023-03-02T07:06:09;23.83;;;10.70;;
19877;SDS011;10101;52.204;9.910;2023-03-02T07:08:37;23.87;;;10.77;;
19877;SDS011;10101;52.204;9.910;2023-03-02T07:11:05;25.23;;;11.43;;
19877;SDS011;10101;52.204;9.910;2023-03-02T07:13:33;20.93;;;10.10;;
19877;SDS011;10101;52.204;9.910;2023-03-02T07:16:04;22.93;;;10.70;;
19877;SDS011;10101;52.204;9.910;2023-03-02T07:18:32;21.30;;;10.03;;
19877;SDS011;10101;52.204;9.910;2023-03-02T07:20:58;21.17;;;10.13;;
19877;SDS011;10101;52.204;9.910;2023-03-02T07:23:25;24.40;;;9.67;;
19877;SDS011;10101;52.204;9.910;2023-03-02T07:25:52;20.77;;;9.90;;
19877;SDS011;10101;52.204;9.910;2023-03-02T07:28:19;20.30;;;9.83;;
19877;SDS011;10101;52.204;9.910;2023-03-02T07:30:49;24.17;;;10.40;;
19877;SDS011;10101;52.204;9.910;2023-03-02T07:33:17;24.67;;;10.77;;
19877;SDS011;10101;52.204;9.910;2023-03-02T07:35:43;19.53;;;10.60;;
19877;SDS011;10101;52.204;9.910;2023-03-02T07:38:10;25.33;;;10.97;;
19877;SDS011;10101;52.204;9.910;2023-03-02T07:40:38;23.23;;;11.30;;
19877;SDS011;10101;52.204;9.910;2023-03-02T07:43:05;21.17;;;9.67;;
19877;SDS011;10101;52.204;9.910;2023-03-02T07:45:32;22.77;;;10.63;;
19877;SDS011;10101;52.204;9.910;2023-03-02T07:48:00;23.70;;;10.53;;
19877;SDS011;10101;52.204;9.910;2023-03-02T07:50:28;18.87;;;9.33;;
19877;SDS011;10101;52.204;9.910;2023-03-02T07:52:55;21.50;;;10.03;;
19877;SDS011;10101;52.204;9.910;2023-03-02T07:55:22;21.00;;;10.50;;
19877;SDS011;10101;52.204;9.910;2023-03-02T07:57:49;18.60;;;9.50;;
19877;SDS011;10101;52.204;9.910;2023-03-02T08:00:16;20.93;;;9.87;;
19877;SDS011;10101;52.204;9.910;2023-03-02T08:02:44;20.20;;;9.97;;
19877;SDS011;10101;52.204;9.910;2023-03-02T08:05:12;21.37;;;10.23;;
19877;SDS011;10101;52.204;9.910;2023-03-02T08:07:39;22.23;;;10.03;;
19877;SDS011;10101;52.204;9.910;2023-03-02T08:10:07;19.67;;;9.93;;
19877;SDS011;10101;52.204;9.910;2023-03-02T08:12:35;19.43;;;9.83;;
19877;SDS011;10101;52.204;9.910;2023-03-02T08:15:02;25.43;;;10.60;;
19877;SDS011;10101;52.204;9.910;2023-03-02T08:17:29;19.60;;;10.13;;
19877;SDS011;10101;52.204;9.910;2023-03-02T08:19:56;19.93;;;10.90;;
19877;SDS011;10101;52.204;9.910;2023-03-02T08:22:24;19.17;;;9.97;;
19877;SDS011;10101;52.204;9.910;2023-03-02T08:24:51;21.50;;;9.97;;
19877;SDS011;10101;52.204;9.910;2023-03-02T08:27:17;18.70;;;9.23;;
19877;SDS011;10101;52.204;9.910;2023-03-02T08:29:44;22.30;;;10.53;;
19877;SDS011;10101;52.204;9.910;2023-03-02T08:32:11;18.13;;;8.90;;
19877;SDS011;10101;52.204;9.910;2023-03-02T08:34:38;22.80;;;10.20;;
19877;SDS011;10101;52.204;9.910;2023-03-02T08:37:05;19.83;;;10.23;;
19877;SDS011;10101;52.204;9.910;2023-03-02T08:39:33;25.73;;;10.07;;
19877;SDS011;10101;52.204;9.910;2023-03-02T08:41:59;20.00;;;9.17;;
19877;SDS011;10101;52.204;9.910;2023-03-02T08:44:26;20.33;;;9.83;;
19877;SDS011;10101;52.204;9.910;2023-03-02T08:46:53;17.37;;;8.83;;
19877;SDS011;10101;52.204;9.910;2023-03-02T08:49:20;17.33;;;9.17;;
19877;SDS011;10101;52.204;9.910;2023-03-02T08:51:46;19.00;;;10.27;;
19877;SDS011;10101;52.204;9.910;2023-03-02T08:54:17;21.37;;;10.23;;
19877;SDS011;10101;52.204;9.910;2023-03-02T08:56:46;20.17;;;9.40;;
19877;SDS011;10101;52.204;9.910;2023-03-02T08:59:14;19.30;;;9.67;;
19877;SDS011;10101;52.204;9.910;2023-03-02T09:01:41;16.47;;;8.80;;
19877;SDS011;10101;52.204;9.910;2023-03-02T09:04:09;20.33;;;10.23;;
19877;SDS011;10101;52.204;9.910;2023-03-02T09:06:37;23.07;;;9.67;;
19877;SDS011;10101;52.204;9.910;2023-03-02T09:09:05;18.27;;;9.57;;
19877;SDS011;10101;52.204;9.910;2023-03-02T09:11:32;20.20;;;10.00;;
19877;SDS011;10101;52.204;9.910;2023-03-02T09:14:01;22.10;;;10.13;;
19877;SDS011;10101;52.204;9.910;2023-03-02T09:16:28;19.73;;;9.37;;
19877;SDS011;10101;52.204;9.910;2023-03-02T09:18:55;23.83;;;11.37;;
19877;SDS011;10101;52.204;9.910;2023-03-02T09:21:22;19.77;;;9.57;;
19877;SDS011;10101;52.204;9.910;2023-03-02T09:23:49;18.77;;;9.47;;
19877;SDS011;10101;52.204;9.910;2023-03-02T09:26:17;19.87;;;9.73;;
19877;SDS011;10101;52.204;9.910;2023-03-02T09:28:45;21.33;;;10.17;;
19877;SDS011;10101;52.204;9.910;2023-03-02T09:31:13;18.13;;;10.07;;
19877;SDS011;10101;52.204;9.910;2023-03-02T09:33:40;24.37;;;10.17;;
19877;SDS011;10101;52.204;9.910;2023-03-02T09:36:07;23.97;;;11.23;;
19877;SDS011;10101;52.204;9.910;2023-03-02T09:38:36;20.93;;;11.10;;
19877;SDS011;10101;52.204;9.910;2023-03-02T09:41:06;20.90;;;9.50;;
19877;SDS011;10101;52.204;9.910;2023-03-02T09:43:49;14.70;;;8.30;;
19877;SDS011;10101;52.204;9.910;2023-03-02T09:46:24;18.33;;;9.33;;
19877;SDS011;10101;52.204;9.910;2023-03-02T09:48:58;23.10;;;10.27;;
19877;SDS011;10101;52.204;9.910;2023-03-02T09:51:36;20.20;;;10.30;;
19877;SDS011;10101;52.204;9.910;2023-03-02T09:54:09;21.60;;;9.60;;
19877;SDS011;10101;52.204;9.910;2023-03-02T09:56:41;18.67;;;9.13;;
19877;SDS011;10101;52.204;9.910;2023-03-02T09:59:16;19.63;;;10.27;;
19877;SDS011;10101;52.204;9.910;2023-03-02T10:01:50;19.97;;;9.83;;
19877;SDS011;10101;52.204;9.910;2023-03-02T10:04:23;21.00;;;9.93;;
19877;SDS011;10101;52.204;9.910;2023-03-02T10:06:54;18.93;;;9.53;;
19877;SDS011;10101;52.204;9.910;2023-03-02T10:09:23;20.57;;;10.87;;
19877;SDS011;10101;52.204;9.910;2023-03-02T10:14:44;20.30;;;10.37;;
19877;SDS011;10101;52.204;9.910;2023-03-02T10:17:32;20.30;;;10.23;;
19877;SDS011;10101;52.204;9.910;2023-03-02T10:20:09;19.73;;;9.80;;
19877;SDS011;10101;52.204;9.910;2023-03-02T10:22:42;16.87;;;9.33;;
19877;SDS011;10101;52.204;9.910;2023-03-02T10:25:16;18.40;;;9.20;;
19877;SDS011;10101;52.204;9.910;2023-03-02T10:27:50;19.90;;;10.30;;
19877;SDS011;10101;52.204;9.910;2023-03-02T10:30:20;19.80;;;9.73;;
19877;SDS011;10101;52.204;9.910;2023-03-02T10:32:54;19.97;;;9.90;;
19877;SDS011;10101;52.204;9.910;2023-03-02T10:35:24;20.93;;;10.00;;
19877;SDS011;10101;52.204;9.910;2023-03-02T10:37:54;20.90;;;10.13;;
19877;SDS011;10101;52.204;9.910;2023-03-02T10:40:28;23.03;;;10.97;;
19877;SDS011;10101;52.204;9.910;2023-03-02T10:43:04;19.07;;;9.67;;
19877;SDS011;10101;52.204;9.910;2023-03-02T10:45:32;20.70;;;9.90;;
19877;SDS011;10101;52.204;9.910;2023-03-02T10:48:01;17.93;;;9.17;;
19877;SDS011;10101;52.204;9.910;2023-03-02T10:50:29;19.60;;;10.43;;
19877;SDS011;10101;52.204;9.910;2023-03-02T10:52:56;20.23;;;10.07;;
19877;SDS011;10101;52.204;9.910;2023-03-02T10:55:23;20.33;;;10.67;;
19877;SDS011;10101;52.204;9.910;2023-03-02T10:58:00;17.90;;;9.07;;
19877;SDS011;10101;52.204;9.910;2023-03-02T11:00:29;26.47;;;13.40;;
19877;SDS011;10101;52.204;9.910;2023-03-02T11:02:58;18.47;;;9.70;;
19877;SDS011;10101;52.204;9.910;2023-03-02T11:05:29;21.03;;;9.97;;
19877;SDS011;10101;52.204;9.910;2023-03-02T11:07:58;19.30;;;10.47;;
19877;SDS011;10101;52.204;9.910;2023-03-02T11:10:27;20.33;;;10.67;;
19877;SDS011;10101;52.204;9.910;2023-03-02T11:12:56;22.37;;;11.53;;
19877;SDS011;10101;52.204;9.910;2023-03-02T11:15:26;20.40;;;10.13;;
19877;SDS011;10101;52.204;9.910;2023-03-02T11:18:01;20.83;;;10.60;;
19877;SDS011;10101;52.204;9.910;2023-03-02T11:20:32;27.13;;;13.10;;
19877;SDS011;10101;52.204;9.910;2023-03-02T11:25:52;23.87;;;12.37;;
19877;SDS011;10101;52.204;9.910;2023-03-02T11:28:33;23.53;;;12.43;;
19877;SDS011;10101;52.204;9.910;2023-03-02T11:31:08;54.80;;;24.07;;
19877;SDS011;10101;52.204;9.910;2023-03-02T11:33:53;32.50;;;15.77;;
19877;SDS011;10101;52.204;9.910;2023-03-02T11:36:28;23.37;;;11.37;;
19877;SDS011;10101;52.204;9.910;2023-03-02T11:39:04;30.30;;;15.47;;
19877;SDS011;10101;52.204;9.910;2023-03-02T11:41:37;30.43;;;18.00;;
19877;SDS011;10101;52.204;9.910;2023-03-02T11:44:08;29.73;;;16.20;;
19877;SDS011;10101;52.204;9.910;2023-03-02T11:46:40;23.57;;;12.03;;
19877;SDS011;10101;52.204;9.910;2023-03-02T11:49:13;20.53;;;10.77;;
19877;SDS011;10101;52.204;9.910;2023-03-02T11:51:47;21.17;;;10.83;;
19877;SDS011;10101;52.204;9.910;2023-03-02T11:54:24;27.17;;;12.63;;
19877;SDS011;10101;52.204;9.910;2023-03-02T11:57:00;28.23;;;13.27;;
19877;SDS011;10101;52.204;9.910;2023-03-02T11:59:28;28.27;;;13.10;;
19877;SDS011;10101;52.204;9.910;2023-03-02T12:01:56;22.73;;;10.60;;
19877;SDS011;10101;52.204;9.910;2023-03-02T12:04:27;20.43;;;10.43;;
19877;SDS011;10101;52.204;9.910;2023-03-02T12:06:56;22.23;;;11.33;;
19877;SDS011;10101;52.204;9.910;2023-03-02T12:09:26;21.90;;;12.33;;
19877;SDS011;10101;52.204;9.910;2023-03-02T12:11:58;22.87;;;12.47;;
19877;SDS011;10101;52.204;9.910;2023-03-02T12:14:39;25.10;;;11.93;;
19877;SDS011;10101;52.204;9.910;2023-03-02T12:17:18;20.73;;;11.23;;
19877;SDS011;10101;52.204;9.910;2023-03-02T12:19:48;20.37;;;11.03;;
19877;SDS011;10101;52.204;9.910;2023-03-02T12:22:27;21.40;;;10.87;;
19877;SDS011;10101;52.204;9.910;2023-03-02T12:24:59;19.77;;;11.10;;
19877;SDS011;10101;52.204;9.910;2023-03-02T12:27:32;21.70;;;12.07;;
19877;SDS011;10101;52.204;9.910;2023-03-02T12:30:19;19.83;;;10.67;;
19877;SDS011;10101;52.204;9.910;2023-03-02T12:33:02;22.00;;;12.10;;
19877;SDS011;10101;52.204;9.910;2023-03-02T12:35:42;21.27;;;11.47;;
19877;SDS011;10101;52.204;9.910;2023-03-02T12:38:17;26.87;;;13.10;;
19877;SDS011;10101;52.204;9.910;2023-03-02T12:40:58;24.27;;;12.83;;
19877;SDS011;10101;52.204;9.910;2023-03-02T12:43:41;25.10;;;12.93;;
19877;SDS011;10101;52.204;9.910;2023-03-02T12:49:04;26.63;;;12.70;;
19877;SDS011;10101;52.204;9.910;2023-03-02T12:51:47;24.13;;;12.70;;
19877;SDS011;10101;52.204;9.910;2023-03-02T12:54:16;20.20;;;11.00;;
19877;SDS011;10101;52.204;9.910;2023-03-02T12:56:45;20.90;;;11.33;;
19877;SDS011;10101;52.204;9.910;2023-03-02T12:59:19;21.87;;;11.57;;
19877;SDS011;10101;52.204;9.910;2023-03-02T13:01:47;19.80;;;11.03;;
19877;SDS011;10101;52.204;9.910;2023-03-02T13:04:24;17.90;;;10.57;;
19877;SDS011;10101;52.204;9.910;2023-03-02T13:06:53;26.80;;;14.60;;
19877;SDS011;10101;52.204;9.910;2023-03-02T13:09:20;29.07;;;14.07;;
19877;SDS011;10101;52.204;9.910;2023-03-02T13:11:48;25.80;;;14.87;;
19877;SDS011;10101;52.204;9.910;2023-03-02T13:14:19;20.97;;;11.43;;
19877;SDS011;10101;52.204;9.910;2023-03-02T13:16:53;26.83;;;15.47;;
19877;SDS011;10101;52.204;9.910;2023-03-02T13:19:21;30.43;;;16.70;;
19877;SDS011;10101;52.204;9.910;2023-03-02T13:21:49;21.00;;;12.03;;
19877;SDS011;10101;52.204;9.910;2023-03-02T13:27:14;21.27;;;10.60;;
19877;SDS011;10101;52.204;9.910;2023-03-02T13:29:42;20.03;;;11.10;;
19877;SDS011;10101;52.204;9.910;2023-03-02T13:32:19;23.60;;;14.00;;
19877;SDS011;10101;52.204;9.910;2023-03-02T13:34:49;27.03;;;14.37;;
19877;SDS011;10101;52.204;9.910;2023-03-02T13:37:18;20.43;;;11.17;;
19877;SDS011;10101;52.204;9.910;2023-03-02T13:42:58;24.97;;;13.23;;
19877;SDS011;10101;52.204;9.910;2023-03-02T13:45:26;29.90;;;15.27;;
19877;SDS011;10101;52.204;9.910;2023-03-02T13:47:55;27.97;;;13.30;;
19877;SDS011;10101;52.204;9.910;2023-03-02T13:50:24;33.40;;;15.33;;
19877;SDS011;10101;52.204;9.910;2023-03-02T13:52:53;22.77;;;11.87;;
19877;SDS011;10101;52.204;9.910;2023-03-02T13:55:22;36.27;;;18.60;;
19877;SDS011;10101;52.204;9.910;2023-03-02T13:57:51;23.67;;;13.37;;
19877;SDS011;10101;52.204;9.910;2023-03-02T14:00:20;24.90;;;13.20;;
19877;SDS011;10101;52.204;9.910;2023-03-02T14:02:49;20.50;;;12.00;;
19877;SDS011;10101;52.204;9.910;2023-03-02T14:05:17;21.67;;;12.10;;
19877;SDS011;10101;52.204;9.910;2023-03-02T14:07:46;22.43;;;11.67;;
19877;SDS011;10101;52.204;9.910;2023-03-02T14:10:13;21.30;;;11.27;;
19877;SDS011;10101;52.204;9.910;2023-03-02T14:12:42;25.40;;;12.13;;
19877;SDS011;10101;52.204;9.910;2023-03-02T14:15:18;21.27;;;11.37;;
19877;SDS011;10101;52.204;9.910;2023-03-02T14:17:45;21.17;;;11.77;;
19877;SDS011;10101;52.204;9.910;2023-03-02T14:20:13;25.03;;;12.80;;
19877;SDS011;10101;52.204;9.910;2023-03-02T14:22:43;25.10;;;12.23;;
19877;SDS011;10101;52.204;9.910;2023-03-02T14:25:10;34.63;;;16.07;;
19877;SDS011;10101;52.204;9.910;2023-03-02T14:27:37;48.67;;;21.20;;
19877;SDS011;10101;52.204;9.910;2023-03-02T14:30:12;24.17;;;13.03;;
19877;SDS011;10101;52.204;9.910;2023-03-02T14:32:43;30.07;;;14.13;;
19877;SDS011;10101;52.204;9.910;2023-03-02T14:35:10;23.77;;;11.63;;
19877;SDS011;10101;52.204;9.910;2023-03-02T14:37:39;25.63;;;12.60;;
19877;SDS011;10101;52.204;9.910;2023-03-02T14:40:15;27.17;;;13.07;;
19877;SDS011;10101;52.204;9.910;2023-03-02T14:42:46;31.03;;;14.17;;
19877;SDS011;10101;52.204;9.910;2023-03-02T14:45:15;26.67;;;13.43;;
19877;SDS011;10101;52.204;9.910;2023-03-02T14:47:44;25.33;;;13.13;;
19877;SDS011;10101;52.204;9.910;2023-03-02T14:50:11;29.47;;;13.90;;
19877;SDS011;10101;52.204;9.910;2023-03-02T14:52:39;26.03;;;13.37;;
19877;SDS011;10101;52.204;9.910;2023-03-02T14:55:11;35.80;;;16.00;;
19877;SDS011;10101;52.204;9.910;2023-03-02T14:57:43;25.93;;;13.33;;